Time;durP1;ratioP1;P1;durP2;ratioP2;P2;SDS_P1;SDS_P2;PMS_P1;PMS_P2;Temp;Humidity;BMP_temperature;BMP_pressure;BME280_temperature;BME280_humidity;BME280_pressure;Samples;Min_cycle;Max_cycle;Signal;HPM_P1;HPM_P2
2022/01/16 00:00:49;;;;;;;19.50;9.70;;;;;;;3.44;68.98;97933.25;5972807;23;20608;-89
2022/01/16 00:05:59;;;;;;;21.15;9.50;;;;;;;3.35;68.84;97922.25;6033997;23;20182;-87
2022/01/16 00:08:24;;;;;;;24.25;9.02;;;;;;;3.29;69.24;97917.81;6006814;23;20153;-87
2022/01/16 00:10:49;;;;;;;18.90;8.82;;;;;;;3.31;69.33;97918.44;6007411;23;20174;-88
2022/01/16 00:13:15;;;;;;;17.70;8.70;;;;;;;3.28;68.92;97918.81;5973842;23;20174;-88
2022/01/16 00:15:44;;;;;;;23.13;9.35;;;;;;;3.28;68.79;97929.09;6006369;23;20261;-88
2022/01/16 00:18:19;;;;;;;22.05;8.85;;;;;;;3.17;69.07;97927.75;5974313;23;20272;-88
2022/01/16 00:20:45;;;;;;;48.63;11.93;;;;;;;3.10;69.56;97934.59;6009152;23;20621;-87
2022/01/16 00:23:11;;;;;;;20.13;9.30;;;;;;;3.22;69.53;97924.66;6007484;23;20314;-87
2022/01/16 00:25:36;;;;;;;24.55;11.30;;;;;;;3.26;69.65;97924.13;6006886;23;20155;-87
2022/01/16 00:28:02;;;;;;;23.02;9.85;;;;;;;3.28;68.99;97911.09;5973366;23;20266;-87
2022/01/16 00:30:27;;;;;;;20.00;9.27;;;;;;;3.25;69.41;97890.84;5973775;23;20682;-86
2022/01/16 00:32:59;;;;;;;21.60;9.93;;;;;;;3.30;69.55;97868.72;5997271;23;20201;-87
2022/01/16 00:35:24;;;;;;;22.60;9.63;;;;;;;3.37;69.05;97873.97;5998199;23;20671;-87
2022/01/16 00:37:52;;;;;;;21.88;9.25;;;;;;;3.30;68.95;97891.91;5973309;23;20143;-87
2022/01/16 00:40:17;;;;;;;19.70;8.20;;;;;;;3.18;69.26;97877.91;5973568;23;20668;-87
2022/01/16 00:42:43;;;;;;;21.08;10.30;;;;;;;3.33;68.92;97883.03;5972811;23;20232;-87
2022/01/16 00:45:09;;;;;;;21.95;9.18;;;;;;;3.33;68.82;97903.63;6007709;23;20183;-87
2022/01/16 00:47:34;;;;;;;23.23;9.35;;;;;;;3.30;68.88;97893.69;5999985;23;20245;-88
2022/01/16 00:49:59;;;;;;;21.92;8.85;;;;;;;3.29;69.00;97918.63;5975825;23;20181;-87
2022/01/16 00:52:25;;;;;;;23.15;10.40;;;;;;;3.30;68.58;97896.25;6031987;23;20554;-87
2022/01/16 00:54:50;;;;;;;23.67;9.48;;;;;;;3.18;68.94;97922.44;5974241;23;20292;-87
2022/01/16 00:57:15;;;;;;;22.20;9.77;;;;;;;3.14;69.64;97916.06;5975530;23;20233;-87
2022/01/16 00:59:41;;;;;;;22.42;9.73;;;;;;;3.20;69.30;97919.69;5974634;23;20174;-87
2022/01/16 01:02:06;;;;;;;21.00;9.25;;;;;;;3.29;69.06;97920.38;6007700;23;20189;-87
2022/01/16 01:04:32;;;;;;;21.55;9.57;;;;;;;3.28;68.86;97911.88;5974122;23;20057;-87
2022/01/16 01:06:57;;;;;;;24.10;9.57;;;;;;;3.22;68.97;97894.56;6008305;23;20229;-87
2022/01/16 01:09:24;;;;;;;21.38;9.48;;;;;;;3.36;68.88;97903.28;5998975;23;20201;-87
2022/01/16 01:11:50;;;;;;;24.63;10.05;;;;;;;3.34;69.16;97900.88;6010500;23;20156;-88
2022/01/16 01:17:01;;;;;;;27.15;10.80;;;;;;;3.29;68.90;97913.47;6001076;23;20277;-89
2022/01/16 01:19:33;;;;;;;24.60;10.82;;;;;;;3.32;68.22;97909.72;5979321;23;20612;-87
2022/01/16 01:21:59;;;;;;;21.40;9.27;;;;;;;3.29;68.96;97915.22;5977028;23;20254;-89
2022/01/16 01:24:26;;;;;;;24.38;9.65;;;;;;;3.36;68.38;97873.16;5998768;23;20586;-87
2022/01/16 01:27:03;;;;;;;22.38;10.02;;;;;;;3.26;68.46;97835.84;6005850;23;20186;-89
2022/01/16 01:29:29;;;;;;;23.77;11.13;;;;;;;3.24;68.77;97843.72;5977692;23;20261;-87
2022/01/16 01:31:55;;;;;;;23.70;10.18;;;;;;;3.17;68.62;97843.66;5976238;23;20225;-87
2022/01/16 01:34:21;;;;;;;27.52;11.32;;;;;;;3.24;69.01;97837.75;5975483;23;20605;-86
2022/01/16 01:36:48;;;;;;;26.33;11.32;;;;;;;3.15;68.47;97825.03;6024427;23;20304;-86
2022/01/16 01:39:21;;;;;;;26.63;12.60;;;;;;;3.08;69.21;97842.13;5974736;23;20328;-86
2022/01/16 01:41:49;;;;;;;27.88;12.10;;;;;;;3.25;69.25;97854.81;6028726;23;20656;-86
2022/01/16 01:52:28;;;;;;;30.45;12.45;;;;;;;3.28;68.89;97901.56;6021154;23;20223;-86
2022/01/16 01:54:53;;;;;;;30.58;13.90;;;;;;;3.35;68.36;97912.75;5973373;23;20302;-88
2022/01/16 01:57:19;;;;;;;27.80;12.25;;;;;;;3.33;68.23;97919.84;5995350;23;20330;-86
2022/01/16 01:59:44;;;;;;;25.85;12.70;;;;;;;3.25;68.46;97908.84;6018381;23;20542;-87
2022/01/16 02:02:10;;;;;;;27.85;12.30;;;;;;;3.31;68.48;97910.72;6019402;23;20638;-86
2022/01/16 02:04:35;;;;;;;33.92;13.77;;;;;;;3.32;68.64;97914.88;5971370;23;20527;-87
2022/01/16 02:07:00;;;;;;;29.30;12.88;;;;;;;3.26;68.31;97918.19;5973109;23;20290;-88
2022/01/16 02:09:26;;;;;;;33.60;13.93;;;;;;;3.21;68.28;97911.00;5972936;23;20229;-90
2022/01/16 02:11:52;;;;;;;28.75;13.65;;;;;;;3.13;68.46;97918.81;5973354;23;20210;-87
2022/01/16 02:14:29;;;;;;;30.70;14.18;;;;;;;3.17;68.37;97915.69;5973277;23;20171;-87
2022/01/16 02:28:11;;;;;;;26.05;11.85;;;;;;;3.16;68.47;97921.81;6000319;23;20178;-88
2022/01/16 02:35:57;;;;;;;32.10;14.18;;;;;;;3.23;68.28;97913.38;6001196;23;20095;-89
2022/01/16 02:38:23;;;;;;;27.42;13.00;;;;;;;3.16;68.07;97906.38;6007239;23;20276;-87
2022/01/16 02:40:56;;;;;;;31.67;14.82;;;;;;;3.17;68.39;97914.88;5973895;23;20182;-88
2022/01/16 02:43:29;;;;;;;38.15;14.93;;;;;;;3.19;68.11;97907.81;6006536;23;20173;-87
2022/01/16 02:46:35;;;;;;;34.72;14.43;;;;;;;3.15;68.04;97907.38;5975260;23;20177;-87
2022/01/16 02:48:44;;;;;;;35.05;14.00;;;;;;;3.15;67.85;97909.13;6001132;23;20174;-87
2022/01/16 02:51:10;;;;;;;34.25;13.52;;;;;;;3.17;67.39;97910.56;6007882;23;20290;-87
2022/01/16 02:53:35;;;;;;;31.30;13.55;;;;;;;3.09;67.55;97902.91;5973135;23;20178;-87
2022/01/16 02:56:00;;;;;;;30.42;15.35;;;;;;;3.10;67.49;97883.94;5973373;23;20193;-86
2022/01/16 02:58:26;;;;;;;34.58;14.70;;;;;;;3.14;67.74;97884.38;6006870;23;20198;-87
2022/01/16 03:00:52;;;;;;;31.65;14.05;;;;;;;3.10;67.99;97873.66;5972845;23;20189;-87
2022/01/16 03:03:17;;;;;;;32.70;13.80;;;;;;;3.10;67.98;97860.78;5972418;23;20182;-87
2022/01/16 03:05:42;;;;;;;32.80;14.30;;;;;;;3.09;67.13;97866.91;5973019;23;20174;-88
2022/01/16 03:08:08;;;;;;;35.90;16.63;;;;;;;3.12;66.96;97866.56;5975050;23;20339;-87
2022/01/16 03:13:20;;;;;;;37.47;15.13;;;;;;;3.12;67.59;97865.72;6022499;23;20575;-88
2022/01/16 03:15:45;;;;;;;41.35;17.38;;;;;;;3.02;67.86;97867.78;5975674;23;20649;-87
2022/01/16 03:23:23;;;;;;;38.90;16.40;;;;;;;3.08;68.17;97849.84;6002374;23;20134;-87
2022/01/16 03:25:50;;;;;;;38.30;18.58;;;;;;;3.09;68.09;97841.19;6007976;23;20189;-86
2022/01/16 03:28:17;;;;;;;42.28;16.92;;;;;;;3.08;67.93;97849.06;5998969;23;20173;-87
2022/01/16 03:30:43;;;;;;;41.55;17.52;;;;;;;3.22;67.16;97852.59;5974635;23;20155;-88
2022/01/16 03:33:09;;;;;;;38.40;16.67;;;;;;;2.85;68.56;97844.84;6022067;23;20186;-88
2022/01/16 03:35:34;;;;;;;39.90;16.13;;;;;;;3.03;68.14;97851.38;5974519;23;20143;-87
2022/01/16 03:38:00;;;;;;;37.50;15.98;;;;;;;2.96;67.69;97843.56;5974648;23;20185;-89
2022/01/16 03:40:26;;;;;;;41.35;17.05;;;;;;;3.01;68.02;97833.56;5998103;23;20254;-89
2022/01/16 03:42:51;;;;;;;44.60;17.85;;;;;;;2.97;67.53;97829.75;5973689;23;20541;-88
2022/01/16 03:45:17;;;;;;;50.10;20.00;;;;;;;2.88;67.65;97838.53;5974012;23;20542;-87
2022/01/16 03:47:42;;;;;;;45.30;18.67;;;;;;;2.91;68.36;97838.16;5974063;23;20262;-87
2022/01/16 03:50:10;;;;;;;44.72;18.02;;;;;;;2.67;68.32;97847.75;6007585;23;20638;-90
2022/01/16 03:52:35;;;;;;;48.50;18.65;;;;;;;2.69;67.84;97830.38;5975081;23;20147;-88
2022/01/16 03:55:03;;;;;;;42.50;17.77;;;;;;;2.89;67.33;97845.28;5974275;23;20177;-87
2022/01/16 03:57:28;;;;;;;49.53;19.20;;;;;;;2.83;67.29;97853.69;5974890;23;20221;-88
2022/01/16 03:59:55;;;;;;;46.42;18.15;;;;;;;2.82;67.47;97855.47;6022750;23;20252;-87
2022/01/16 04:02:20;;;;;;;46.83;19.02;;;;;;;2.93;67.58;97856.78;5974124;23;20664;-87
2022/01/16 04:04:46;;;;;;;46.60;18.35;;;;;;;2.82;68.20;97850.31;5973482;23;20189;-90
2022/01/16 04:07:17;;;;;;;51.50;18.42;;;;;;;2.73;67.91;97865.03;5997774;23;20179;-92
2022/01/16 04:09:47;;;;;;;46.88;17.85;;;;;;;2.52;68.47;97850.31;5977046;23;20221;-90
2022/01/16 04:12:13;;;;;;;49.58;17.42;;;;;;;2.40;68.77;97847.38;5997261;23;20221;-89
2022/01/16 04:17:19;;;;;;;50.17;19.65;;;;;;;2.70;68.49;97851.75;5999265;23;20170;-88
2022/01/16 04:19:45;;;;;;;49.00;17.85;;;;;;;2.77;67.38;97847.50;5997676;23;20265;-87
2022/01/16 04:22:12;;;;;;;51.65;20.02;;;;;;;2.81;68.12;97856.44;6022247;23;20076;-87
2022/01/16 04:24:37;;;;;;;50.90;19.83;;;;;;;2.76;68.23;97871.59;6007755;23;20319;-87
2022/01/16 04:27:03;;;;;;;49.78;18.20;;;;;;;2.60;68.10;97860.53;6003784;23;20166;-88
2022/01/16 04:29:29;;;;;;;46.33;18.83;;;;;;;2.34;68.29;97857.56;5974576;23;20226;-91
2022/01/16 04:31:55;;;;;;;42.97;17.35;;;;;;;2.68;68.02;97867.34;6008318;23;20598;-87
2022/01/16 04:34:21;;;;;;;49.22;18.30;;;;;;;2.40;68.83;97857.66;6007551;23;20533;-91
2022/01/16 04:36:47;;;;;;;46.35;18.10;;;;;;;2.63;68.09;97870.44;5999169;23;20143;-87
2022/01/16 04:39:16;;;;;;;42.70;18.33;;;;;;;2.69;67.96;97874.09;5974370;23;20212;-88
2022/01/16 04:44:26;;;;;;;45.92;17.25;;;;;;;2.70;67.25;97867.97;6002142;23;20269;-89
2022/01/16 04:46:52;;;;;;;46.35;18.45;;;;;;;2.55;68.16;97864.59;6009428;23;20601;-88
2022/01/16 04:49:17;;;;;;;45.88;17.60;;;;;;;2.57;68.39;97867.78;5975494;23;20174;-88
2022/01/16 04:51:42;;;;;;;43.25;16.13;;;;;;;2.68;68.10;97857.06;6009108;23;20177;-88
2022/01/16 04:54:08;;;;;;;47.88;17.25;;;;;;;2.61;67.92;97853.59;6022593;23;20253;-87
2022/01/16 04:56:34;;;;;;;44.50;18.42;;;;;;;2.60;68.02;97862.28;5999244;23;20205;-88
2022/01/16 04:58:59;;;;;;;44.78;17.58;;;;;;;2.79;68.30;97859.22;6008330;23;20185;-88
2022/01/16 05:01:25;;;;;;;44.63;18.10;;;;;;;2.54;67.86;97832.16;5975127;23;20194;-88
2022/01/16 05:03:50;;;;;;;40.38;16.60;;;;;;;2.69;67.99;97863.00;5975500;23;20185;-88
2022/01/16 05:06:15;;;;;;;48.05;20.17;;;;;;;2.50;68.14;97846.31;5998638;23;20178;-88
2022/01/16 05:08:41;;;;;;;45.22;19.63;;;;;;;2.70;68.30;97877.47;6010123;23;20194;-88
2022/01/16 05:11:10;;;;;;;55.80;19.08;;;;;;;2.59;67.65;97881.28;6023343;23;20091;-88
2022/01/16 05:18:47;;;;;;;45.92;17.55;;;;;;;2.42;68.61;97870.34;6024103;23;20080;-90
2022/01/16 05:21:12;;;;;;;43.35;16.52;;;;;;;2.37;68.80;97877.78;5976228;23;20151;-89
2022/01/16 05:23:38;;;;;;;39.20;15.52;;;;;;;2.42;68.26;97889.13;6032565;23;20233;-88
2022/01/16 05:26:04;;;;;;;47.53;16.95;;;;;;;2.21;67.97;97889.78;5975529;23;20697;-89
2022/01/16 05:28:31;;;;;;;41.17;16.40;;;;;;;2.12;68.12;97880.53;5977041;23;20178;-91
2022/01/16 05:30:57;;;;;;;46.22;16.10;;;;;;;1.88;69.05;97876.38;6032486;23;20079;-89
2022/01/16 05:33:23;;;;;;;33.08;14.30;;;;;;;2.11;69.01;97920.03;5975272;23;20646;-89
2022/01/16 05:35:48;;;;;;;38.95;15.77;;;;;;;1.91;68.47;97909.41;6023106;23;20162;-88
2022/01/16 05:38:15;;;;;;;80.95;16.58;;;;;;;1.95;68.53;97926.06;6010432;23;20578;-89
2022/01/16 05:40:41;;;;;;;41.90;16.40;;;;;;;1.94;69.76;97929.63;5978265;23;20225;-88
2022/01/16 05:43:06;;;;;;;45.42;17.52;;;;;;;2.06;68.21;97937.75;6010228;23;20519;-88
2022/01/16 05:45:32;;;;;;;40.67;17.13;;;;;;;1.98;69.13;97945.50;5979499;23;20186;-89
2022/01/16 05:47:57;;;;;;;41.67;16.98;;;;;;;2.01;69.32;97940.81;5978643;23;20248;-89
2022/01/16 05:50:26;;;;;;;40.53;17.48;;;;;;;1.94;69.22;97947.59;6012009;23;20202;-89
2022/01/16 05:52:52;;;;;;;46.15;17.00;;;;;;;2.02;68.99;97939.84;5979020;23;20162;-88
2022/01/16 05:55:17;;;;;;;48.42;18.25;;;;;;;2.14;68.47;97945.41;5979293;23;20190;-88
2022/01/16 05:57:43;;;;;;;47.33;17.25;;;;;;;2.23;68.67;97948.72;5979981;23;20333;-89
2022/01/16 06:00:11;;;;;;;45.00;17.23;;;;;;;2.14;67.76;97944.59;5977023;23;20182;-88
2022/01/16 06:02:36;;;;;;;47.45;18.88;;;;;;;2.18;68.77;97935.56;5981387;23;20175;-89
2022/01/16 06:05:03;;;;;;;44.78;17.63;;;;;;;2.10;68.95;97931.28;5977315;23;20556;-90
2022/01/16 06:07:28;;;;;;;48.80;18.20;;;;;;;2.02;68.63;97924.44;5978873;23;20356;-89
2022/01/16 06:09:54;;;;;;;51.03;18.25;;;;;;;2.01;68.97;97920.25;5979001;23;20154;-89
2022/01/16 06:12:19;;;;;;;45.60;18.33;;;;;;;2.04;69.54;97927.63;5978368;23;20345;-90
2022/01/16 06:14:45;;;;;;;43.67;19.33;;;;;;;1.96;69.43;97932.03;5978409;23;20256;-88
2022/01/16 06:17:10;;;;;;;48.65;18.48;;;;;;;2.10;68.95;97925.34;5981773;23;20222;-88
2022/01/16 06:19:56;;;;;;;41.40;17.23;;;;;;;1.87;68.90;97903.03;6039821;23;20178;-90
2022/01/16 06:22:22;;;;;;;42.38;16.40;;;;;;;2.01;69.14;97925.41;5979678;23;20079;-88
2022/01/16 06:24:47;;;;;;;48.40;18.65;;;;;;;1.95;68.81;97918.38;5978817;23;20308;-87
2022/01/16 06:27:12;;;;;;;39.70;17.75;;;;;;;1.85;69.84;97928.06;6002887;23;20569;-90
2022/01/16 06:29:38;;;;;;;45.22;18.50;;;;;;;1.96;69.31;97932.81;5977365;23;20206;-88
2022/01/16 06:32:04;;;;;;;44.70;19.20;;;;;;;2.09;68.88;97939.16;5981013;23;20254;-88
2022/01/16 06:34:29;;;;;;;46.08;16.88;;;;;;;2.16;69.06;97958.88;5979544;23;20220;-88
2022/01/16 06:36:54;;;;;;;41.90;17.35;;;;;;;2.06;69.03;97959.09;5979869;23;20197;-88
2022/01/16 06:39:20;;;;;;;44.25;17.75;;;;;;;2.13;69.59;97961.78;5978703;23;20467;-88
2022/01/16 06:41:45;;;;;;;39.47;16.20;;;;;;;2.06;69.21;97953.94;5979368;23;20268;-90
2022/01/16 06:44:11;;;;;;;39.35;15.65;;;;;;;2.07;68.87;97957.31;5982496;23;20174;-89
2022/01/16 06:46:36;;;;;;;50.65;16.02;;;;;;;2.09;68.90;97963.09;5982429;23;20181;-89
2022/01/16 06:49:01;;;;;;;39.42;15.63;;;;;;;2.27;68.54;97964.59;6019576;23;20633;-89
2022/01/16 06:51:27;;;;;;;41.78;15.35;;;;;;;1.93;69.14;97953.69;5983730;23;20286;-89
2022/01/16 06:53:53;;;;;;;45.08;17.27;;;;;;;1.89;69.85;97972.19;5981072;23;20151;-88
2022/01/16 06:56:19;;;;;;;36.40;16.35;;;;;;;1.83;69.67;97995.00;5979946;23;20226;-90
2022/01/16 06:58:44;;;;;;;40.45;16.45;;;;;;;1.95;69.23;97990.28;5985131;23;20665;-89
2022/01/16 07:01:10;;;;;;;52.25;16.80;;;;;;;1.73;69.26;97983.34;5981311;23;20264;-88
2022/01/16 07:03:36;;;;;;;41.90;15.88;;;;;;;1.98;68.91;97997.66;5986403;23;20190;-89
2022/01/16 07:06:03;;;;;;;48.33;17.05;;;;;;;1.84;69.67;98006.88;6013942;23;20589;-89
2022/01/16 07:08:29;;;;;;;44.55;15.18;;;;;;;1.59;70.27;97990.75;5980131;23;20055;-89
2022/01/16 07:10:56;;;;;;;46.47;17.10;;;;;;;1.56;70.40;98008.25;5981536;23;20296;-88
2022/01/16 07:13:22;;;;;;;41.65;16.48;;;;;;;1.51;70.76;97990.81;5979868;23;20076;-88
2022/01/16 07:15:48;;;;;;;48.55;16.60;;;;;;;1.55;70.71;98014.38;6003968;23;20173;-86
2022/01/16 07:18:14;;;;;;;46.97;16.05;;;;;;;1.49;70.96;98019.22;5981597;23;20246;-89
2022/01/16 07:20:40;;;;;;;41.42;15.60;;;;;;;1.49;71.19;98028.66;5982576;23;20625;-89
2022/01/16 07:23:06;;;;;;;46.70;15.85;;;;;;;1.69;71.02;98034.22;6019604;23;20140;-88
2022/01/16 07:25:31;;;;;;;54.25;18.05;;;;;;;1.79;70.17;98034.03;5987870;23;20241;-89
2022/01/16 07:27:57;;;;;;;42.03;16.88;;;;;;;1.68;70.63;98028.28;6007698;23;20238;-89
2022/01/16 07:30:22;;;;;;;47.08;17.02;;;;;;;1.62;70.66;98018.66;6009291;23;20643;-90
2022/01/16 07:32:47;;;;;;;43.40;15.57;;;;;;;1.64;71.28;98044.16;5982240;23;20874;-89
2022/01/16 07:35:13;;;;;;;51.28;17.30;;;;;;;1.72;70.44;98027.97;5983483;23;20170;-89
2022/01/16 07:37:38;;;;;;;42.25;15.98;;;;;;;1.57;70.92;98025.28;6007549;23;20616;-90
2022/01/16 07:40:04;;;;;;;50.70;17.00;;;;;;;1.68;71.07;98028.28;5981516;23;20370;-89
2022/01/16 07:42:30;;;;;;;45.33;16.48;;;;;;;1.84;69.76;98031.75;5982091;23;20130;-89
2022/01/16 07:44:55;;;;;;;47.22;16.92;;;;;;;1.97;69.90;98046.63;6019613;23;20164;-88
2022/01/16 07:47:21;;;;;;;70.72;19.83;;;;;;;1.87;70.37;98026.28;5985738;23;20259;-90
2022/01/16 07:49:46;;;;;;;51.83;17.00;;;;;;;1.97;69.47;98021.75;5987596;23;20264;-88
2022/01/16 07:52:12;;;;;;;48.35;17.85;;;;;;;2.09;69.31;98039.34;5986867;23;20534;-88
2022/01/16 07:54:37;;;;;;;43.92;16.40;;;;;;;1.97;70.00;98046.63;5984304;23;20771;-88
2022/01/16 07:57:04;;;;;;;54.75;17.77;;;;;;;1.68;70.69;98018.00;6019616;23;20142;-89
2022/01/16 07:59:30;;;;;;;50.75;19.77;;;;;;;2.02;70.19;98054.63;5983269;23;20234;-89
2022/01/16 08:01:55;;;;;;;50.08;18.40;;;;;;;2.03;69.25;98061.38;6008233;23;20180;-89
2022/01/16 08:04:20;;;;;;;52.13;17.98;;;;;;;2.00;69.62;98067.63;5983256;23;20187;-89
2022/01/16 08:06:46;;;;;;;50.67;17.73;;;;;;;2.03;70.51;98069.88;5982947;23;20201;-89
2022/01/16 08:09:11;;;;;;;45.20;17.20;;;;;;;2.13;69.44;98074.00;5983787;23;20148;-90
2022/01/16 08:11:36;;;;;;;58.05;18.48;;;;;;;2.11;70.12;98065.66;5981765;23;20378;-89
2022/01/16 08:14:02;;;;;;;45.47;18.50;;;;;;;2.10;69.52;98061.50;5981206;23;20221;-88
2022/01/16 08:16:28;;;;;;;45.28;18.27;;;;;;;2.19;69.56;98057.91;5985096;23;20065;-89
2022/01/16 08:18:53;;;;;;;47.67;17.27;;;;;;;2.29;69.50;98078.25;6005423;23;20698;-89
2022/01/16 08:21:18;;;;;;;49.75;18.73;;;;;;;2.19;69.67;98065.63;5983138;23;20094;-88
2022/01/16 08:23:44;;;;;;;46.13;17.95;;;;;;;2.33;69.51;98072.63;5984070;23;20174;-89
2022/01/16 08:26:09;;;;;;;47.95;17.77;;;;;;;2.22;69.54;98049.88;6016698;23;20347;-88
2022/01/16 08:28:34;;;;;;;49.53;17.80;;;;;;;2.34;69.29;98068.28;5981231;23;20267;-89
2022/01/16 08:31:00;;;;;;;50.10;16.73;;;;;;;2.19;69.42;98075.91;6015172;23;20250;-89
2022/01/16 08:33:25;;;;;;;40.33;16.02;;;;;;;2.01;70.34;98079.50;6037234;23;20211;-88
2022/01/16 08:35:51;;;;;;;43.38;15.43;;;;;;;2.24;69.83;98091.59;5980063;23;20163;-89
2022/01/16 08:38:16;;;;;;;45.55;15.73;;;;;;;2.15;70.03;98079.78;6014443;23;20546;-89
2022/01/16 08:40:42;;;;;;;45.38;16.38;;;;;;;2.24;69.72;98094.19;6014690;23;20547;-89
2022/01/16 08:43:09;;;;;;;45.03;15.85;;;;;;;2.19;70.43;98089.56;5979246;23;20249;-90
2022/01/16 08:45:39;;;;;;;43.20;16.08;;;;;;;1.86;70.34;98065.75;5980743;23;20258;-89
2022/01/16 08:48:06;;;;;;;35.10;14.88;;;;;;;2.09;70.06;98093.28;6014810;23;20633;-86
2022/01/16 08:50:33;;;;;;;41.83;16.60;;;;;;;1.95;71.41;98102.50;6011599;23;20166;-88
2022/01/16 08:52:58;;;;;;;42.38;16.17;;;;;;;2.13;70.65;98117.69;5979515;23;20241;-88
2022/01/16 08:55:24;;;;;;;43.67;16.13;;;;;;;2.23;69.99;98098.53;5980311;23;20363;-89
2022/01/16 08:57:49;;;;;;;39.97;15.07;;;;;;;2.20;70.31;98105.78;5981056;23;20628;-90
2022/01/16 09:00:15;;;;;;;36.53;15.18;;;;;;;2.28;70.55;98123.72;5979723;23;20571;-89
2022/01/16 09:02:40;;;;;;;39.80;14.65;;;;;;;2.22;69.96;98093.53;5981132;23;20531;-89
2022/01/16 09:05:06;;;;;;;39.35;15.93;;;;;;;2.41;69.30;98125.75;5979974;23;20236;-90
2022/01/16 09:07:32;;;;;;;42.92;15.93;;;;;;;2.24;70.26;98125.81;6003176;23;20238;-89
2022/01/16 09:09:59;;;;;;;43.40;15.35;;;;;;;2.10;70.58;98129.06;5979250;23;20582;-89
2022/01/16 09:12:25;;;;;;;39.20;16.08;;;;;;;2.06;70.59;98141.47;5978993;23;20068;-86
2022/01/16 09:14:52;;;;;;;40.95;14.77;;;;;;;1.94;71.38;98160.75;6012832;23;20640;-87
2022/01/16 09:17:17;;;;;;;40.92;14.70;;;;;;;2.10;70.82;98156.53;6002633;23;20249;-88
2022/01/16 09:19:42;;;;;;;37.00;15.38;;;;;;;2.21;70.08;98126.16;5979477;23;20246;-88
2022/01/16 09:22:08;;;;;;;40.03;14.82;;;;;;;2.47;69.87;98155.91;6013078;23;20301;-88
2022/01/16 09:24:34;;;;;;;39.88;14.20;;;;;;;2.48;69.94;98157.50;6012447;23;20142;-89
2022/01/16 09:27:00;;;;;;;41.45;14.80;;;;;;;2.44;70.23;98162.19;5979505;23;20661;-87
2022/01/16 09:29:25;;;;;;;44.58;14.57;;;;;;;2.44;69.93;98157.03;6002817;23;20299;-89
2022/01/16 09:31:51;;;;;;;46.30;16.55;;;;;;;2.63;69.19;98173.81;5979763;23;20190;-88
2022/01/16 09:34:16;;;;;;;36.13;15.40;;;;;;;2.61;69.53;98177.53;5979387;23;20146;-88
2022/01/16 09:36:41;;;;;;;34.38;15.20;;;;;;;2.56;69.28;98174.69;6003360;23;20633;-88
2022/01/16 09:39:07;;;;;;;39.80;14.55;;;;;;;2.62;69.73;98190.22;5979760;23;20174;-89
2022/01/16 09:41:32;;;;;;;42.08;15.57;;;;;;;2.52;69.51;98194.78;5979095;23;20590;-89
2022/01/16 09:43:58;;;;;;;42.00;16.83;;;;;;;2.48;69.92;98172.13;6001935;23;20190;-88
2022/01/16 09:46:23;;;;;;;43.75;16.90;;;;;;;2.48;69.74;98177.28;5979353;23;20215;-89
2022/01/16 09:48:49;;;;;;;47.90;18.65;;;;;;;2.60;69.83;98196.50;6011828;23;20234;-89
2022/01/16 09:51:14;;;;;;;38.30;16.48;;;;;;;2.62;69.86;98176.56;6009643;23;20555;-88
2022/01/16 09:53:41;;;;;;;43.78;18.15;;;;;;;2.70;69.70;98186.00;6010311;23;20144;-89
2022/01/16 09:56:07;;;;;;;49.35;18.27;;;;;;;2.90;69.37;98187.19;6010830;23;20682;-88
2022/01/16 09:58:34;;;;;;;48.97;16.90;;;;;;;2.76;69.42;98185.31;6009945;23;20198;-88
2022/01/16 10:00:59;;;;;;;52.97;19.17;;;;;;;2.90;68.88;98187.19;5978609;23;20595;-87
2022/01/16 10:03:35;;;;;;;48.53;17.80;;;;;;;2.77;69.86;98208.31;5978800;23;20278;-88
2022/01/16 10:06:10;;;;;;;49.88;18.23;;;;;;;2.65;69.60;98203.72;6002546;23;20234;-89
2022/01/16 10:08:37;;;;;;;47.70;18.10;;;;;;;2.81;69.07;98203.63;6012442;23;20578;-90
2022/01/16 10:11:19;;;;;;;45.13;18.08;;;;;;;2.83;69.36;98206.03;5979227;23;20175;-88
2022/01/16 10:14:03;;;;;;;48.83;18.77;;;;;;;2.73;69.57;98199.34;5978559;23;20685;-89
2022/01/16 10:16:34;;;;;;;49.40;19.50;;;;;;;2.83;68.97;98212.00;5980713;23;20389;-89
2022/01/16 10:19:00;;;;;;;50.58;19.27;;;;;;;2.88;69.27;98208.91;6011928;23;20216;-89
2022/01/16 10:21:36;;;;;;;45.13;17.23;;;;;;;2.71;69.58;98203.03;5977982;23;20155;-89
2022/01/16 10:24:23;;;;;;;50.95;19.75;;;;;;;2.71;69.88;98178.13;5978092;23;20060;-88
2022/01/16 10:27:10;;;;;;;49.40;19.52;;;;;;;2.87;69.67;98202.97;5984767;23;20194;-89
2022/01/16 10:29:43;;;;;;;51.65;19.75;;;;;;;2.94;70.24;98206.44;6011902;23;20614;-89
2022/01/16 10:32:22;;;;;;;46.88;18.48;;;;;;;2.92;69.71;98212.75;6013066;23;20357;-89
2022/01/16 10:34:50;;;;;;;53.03;19.50;;;;;;;2.90;70.25;98209.56;6013224;23;20254;-86
2022/01/16 10:37:24;;;;;;;48.83;18.90;;;;;;;2.89;69.63;98201.00;6013686;23;20327;-88
2022/01/16 10:39:55;;;;;;;52.85;19.15;;;;;;;2.70;71.02;98197.09;6026033;23;20285;-88
2022/01/16 10:42:21;;;;;;;50.17;19.70;;;;;;;2.81;70.92;98204.44;6000597;23;20182;-89
2022/01/16 10:44:55;;;;;;;46.97;18.65;;;;;;;2.85;69.60;98204.91;5977898;23;20164;-89
2022/01/16 10:47:28;;;;;;;48.97;18.70;;;;;;;2.76;70.96;98213.63;5978027;23;20165;-89
2022/01/16 10:49:58;;;;;;;56.70;19.30;;;;;;;3.02;69.81;98215.09;5977697;23;20135;-88
2022/01/16 10:52:24;;;;;;;51.78;18.40;;;;;;;2.95;70.13;98230.41;5978338;23;20186;-89
2022/01/16 10:54:49;;;;;;;52.63;19.73;;;;;;;3.14;70.00;98227.41;6001916;23;20251;-88
2022/01/16 10:57:22;;;;;;;46.78;20.27;;;;;;;3.14;69.75;98224.84;6011753;23;20376;-88
2022/01/16 10:59:48;;;;;;;47.15;19.17;;;;;;;3.25;69.66;98226.19;5978422;23;20182;-88
2022/01/16 11:02:14;;;;;;;49.35;20.33;;;;;;;3.20;69.24;98215.63;5978460;23;20174;-88
2022/01/16 11:04:40;;;;;;;52.45;20.75;;;;;;;3.27;68.51;98208.81;5977723;23;20190;-87
2022/01/16 11:07:06;;;;;;;51.08;20.30;;;;;;;3.14;69.41;98201.66;5977332;23;20174;-88
2022/01/16 11:09:31;;;;;;;49.22;19.08;;;;;;;3.17;69.79;98215.97;5978554;23;20577;-88
2022/01/16 11:11:59;;;;;;;50.88;18.70;;;;;;;2.94;70.24;98203.09;5977800;23;20230;-89
2022/01/16 11:14:28;;;;;;;49.72;18.60;;;;;;;3.03;70.20;98214.13;5977606;23;20237;-87
2022/01/16 11:16:57;;;;;;;51.10;20.95;;;;;;;3.13;70.01;98215.50;5977552;23;20341;-87
2022/01/16 11:19:26;;;;;;;49.47;19.17;;;;;;;3.24;69.63;98203.22;5978073;23;20734;-88
2022/01/16 11:21:54;;;;;;;47.35;17.85;;;;;;;3.30;69.14;98202.53;5978289;23;20226;-87
2022/01/16 11:26:52;;;;;;;44.30;19.60;;;;;;;3.12;69.82;98211.34;6003224;23;20187;-90
2022/01/16 11:29:18;;;;;;;51.08;20.55;;;;;;;3.29;70.15;98226.66;6003252;23;20155;-88
2022/01/16 11:31:48;;;;;;;51.83;19.90;;;;;;;3.22;70.38;98225.75;6003689;23;20061;-88
2022/01/16 11:34:13;;;;;;;48.83;18.95;;;;;;;3.28;70.09;98225.06;6012425;23;20148;-89
2022/01/16 11:36:40;;;;;;;56.70;20.50;;;;;;;3.15;70.57;98218.72;5979463;23;20222;-88
2022/01/16 11:39:07;;;;;;;47.45;19.25;;;;;;;3.26;69.87;98232.16;6003244;23;20230;-87
2022/01/16 11:41:50;;;;;;;56.25;19.58;;;;;;;3.17;70.11;98236.53;5978377;23;20514;-88
2022/01/16 11:44:27;;;;;;;57.67;20.38;;;;;;;3.18;69.78;98230.44;5978996;23;20251;-87
2022/01/16 11:46:55;;;;;;;46.60;19.23;;;;;;;3.41;69.56;98240.75;5979157;23;20757;-88
2022/01/16 11:49:38;;;;;;;56.25;20.83;;;;;;;3.19;70.73;98240.56;5978593;23;20178;-88
2022/01/16 11:52:12;;;;;;;50.80;19.17;;;;;;;3.14;70.80;98248.00;5978266;23;20707;-89
2022/01/16 11:54:40;;;;;;;54.65;19.55;;;;;;;3.24;70.69;98236.66;5979200;23;20166;-87
2022/01/16 11:57:29;;;;;;;56.30;20.80;;;;;;;3.20;70.08;98243.94;6012636;23;20181;-86
2022/01/16 12:00:14;;;;;;;47.38;18.95;;;;;;;3.29;69.63;98236.94;6004627;23;20565;-88
2022/01/16 12:02:42;;;;;;;55.47;20.23;;;;;;;3.52;69.93;98242.13;6031774;23;19998;-87
2022/01/16 12:05:08;;;;;;;52.65;20.60;;;;;;;3.51;69.48;98233.59;6040235;23;20002;-87
2022/01/16 12:07:34;;;;;;;54.05;20.27;;;;;;;3.55;69.35;98234.84;6007787;23;20005;-88
2022/01/16 12:09:59;;;;;;;48.35;18.23;;;;;;;3.23;69.81;98217.06;6031783;23;20006;-91
2022/01/16 12:12:27;;;;;;;50.75;19.63;;;;;;;3.50;69.79;98232.00;6008363;23;20017;-87
2022/01/16 12:15:06;;;;;;;47.53;19.85;;;;;;;3.67;68.86;98229.28;6030835;23;20025;-88
2022/01/16 12:17:44;;;;;;;44.60;18.55;;;;;;;3.63;69.06;98222.88;6031154;23;20005;-91